To NAV CANADA Home Page Login to a new session Search on AWWS site Feedback and Comments Disclaimer Vers la page française équivalente Tips FAQ What's new on the site To the Forecasts and Observations / NOTAM section To "File a Flight Plan" website Publications and other links Update of the User's profile FIC Telephone Numbers My Weather Data Folder Route Weather Data Regional Weather Data Local Weather Data To the Forecasts and Observations / NOTAM section
Request Generated 06/26/2017 at 03:32:24 UTC . Weather information available at that time is displayed.

METAR/TAF

MONTREAL/PIERRE-ELLIOTT-TRUDEAU INTL/QC    

METAR CYUL 260300Z 25003KT 15SM BKN017 BKN090 15/13 A2987 RMK SC5AC1
SLP118 DENSITY ALT 200FT=
METAR CYUL 260200Z 25008KT 15SM FEW016 SCT090 BKN160 OVC230 16/13
A2987 RMK SC2AC2AC3CI1 SLP118 DENSITY ALT 300FT=
METAR CYUL 260100Z 21011KT 15SM FEW045TCU FEW090 SCT180 BKN230 16/13
A2986 RMK TCU1AC2AC2CI3 TCU TR SLP113 DENSITY ALT 400FT=

TAF AMD CYUL 260309Z 2603/2624 25008KT P6SM FEW015 SCT090 BKN160
TEMPO 2603/2605 BKN015 OVC090
FM260500 25010KT P6SM SCT008 BKN030 TEMPO 2605/2608 P6SM -SHRA
BKN008 OVC030
FM260800 27010KT 6SM BR FEW008 SCT030 PROB30 2608/2612 2SM BR
BKN005
FM261300 24008KT P6SM SCT020
FM261700 23010KT P6SM BKN050
FM262300 22007KT P6SM FEW060 SCT120
RMK NXT FCST BY 260600Z=
Your time UTC time
Weather data provided by Environment Canada and NAV CANADA